Time;durP1;ratioP1;P1;durP2;ratioP2;P2;SDS_P1;SDS_P2;PMS_P1;PMS_P2;Temp;Humidity;BMP_temperature;BMP_pressure;BME280_temperature;BME280_humidity;BME280_pressure;Samples;Min_cycle;Max_cycle;Signal;HPM_P1;HPM_P2
2021/01/11 00:00:04;;;;;;;;;;;;;;;;;;5056428;28;21047;-83
2021/01/11 00:02:30;;;;;;;;;;;;;;;;;;5052260;28;20396;-84
2021/01/11 00:04:56;;;;;;;;;;;;;;;;;;5053136;28;20396;-84
2021/01/11 00:07:23;;;;;;;;;;;;;;;;;;5044458;28;20425;-84
2021/01/11 00:09:49;;;;;;;;;;;;;;;;;;5050122;28;20387;-84
2021/01/11 00:12:15;;;;;;;;;;;;;;;;;;5052632;28;20396;-84
2021/01/11 00:14:42;;;;;;;;;;;;;;;;;;5059579;28;20376;-84
2021/01/11 00:17:08;;;;;;;;;;;;;;;;;;5056965;28;20407;-82
2021/01/11 00:19:35;;;;;;;;;;;;;;;;;;5056527;28;20388;-85
2021/01/11 00:22:01;;;;;;;;;;;;;;;;;;5052812;28;20391;-84
2021/01/11 00:24:27;;;;;;;;;;;;;;;;;;5055648;28;20376;-84
2021/01/11 00:26:56;;;;;;;;;;;;;;;;;;5056231;28;20404;-84
2021/01/11 00:29:22;;;;;;;;;;;;;;;;;;5058162;28;20415;-81
2021/01/11 00:31:48;;;;;;;;;;;;;;;;;;5066463;28;20395;-83
2021/01/11 00:34:15;;;;;;;;;;;;;;;;;;5059313;28;20387;-84
2021/01/11 00:36:42;;;;;;;;;;;;;;;;;;5058448;28;20380;-84
2021/01/11 00:39:08;;;;;;;;;;;;;;;;;;5057954;28;20387;-84
2021/01/11 00:41:35;;;;;;;;;;;;;;;;;;5059704;28;20391;-83
2021/01/11 00:44:01;;;;;;;;;;;;;;;;;;5062552;28;20387;-84
2021/01/11 00:46:27;;;;;;;;;;;;;;;;;;5061138;28;20403;-83
2021/01/11 00:48:54;;;;;;;;;;;;;;;;;;5051488;28;20896;-84
2021/01/11 00:51:20;;;;;;;;;;;;;;;;;;5062133;28;20399;-83
2021/01/11 00:53:47;;;;;;;;;;;;;;;;;;5056349;28;20378;-82
2021/01/11 00:56:13;;;;;;;;;;;;;;;;;;5066896;28;20407;-83
2021/01/11 00:58:39;;;;;;;;;;;;;;;;;;5071244;28;20404;-82
2021/01/11 01:01:06;;;;;;;;;;;;;;;;;;5078616;28;20375;-83
2021/01/11 01:03:32;;;;;;;;;;;;;;;;;;5070785;28;20390;-81
2021/01/11 01:05:59;;;;;;;;;;;;;;;;;;5061308;28;20380;-83
2021/01/11 01:08:25;;;;;;;;;;;;;;;;;;5056961;28;20410;-83
2021/01/11 01:10:52;;;;;;;;;;;;;;;;;;5055880;28;20383;-82
2021/01/11 01:13:18;;;;;;;;;;;;;;;;;;5055889;28;20871;-83
2021/01/11 01:15:44;;;;;;;;;;;;;;;;;;5049234;28;20437;-83
2021/01/11 01:18:11;;;;;;;;;;;;;;;;;;5043327;28;20404;-82
2021/01/11 01:20:37;;;;;;;;;;;;;;;;;;5048704;28;20387;-83
2021/01/11 01:23:03;;;;;;;;;;;;;;;;;;5056514;28;20376;-82
2021/01/11 01:25:30;;;;;;;;;;;;;;;;;;5056921;28;20390;-82
2021/01/11 01:27:56;;;;;;;;;;;;;;;;;;5057230;28;20404;-83
2021/01/11 01:30:23;;;;;;;;;;;;;;;;;;5050398;28;20386;-82
2021/01/11 01:32:49;;;;;;;;;;;;;;;;;;5049415;28;20406;-83
2021/01/11 01:35:15;;;;;;;;;;;;;;;;;;5049576;28;20434;-83
2021/01/11 01:37:42;;;;;;;;;;;;;;;;;;5055147;28;20498;-83
2021/01/11 01:40:08;;;;;;;;;;;;;;;;;;5051023;28;20380;-83
2021/01/11 01:42:34;;;;;;;;;;;;;;;;;;5054950;28;20384;-83
2021/01/11 01:45:01;;;;;;;;;;;;;;;;;;5047700;28;20380;-83
2021/01/11 01:47:27;;;;;;;;;;;;;;;;;;5046239;28;20414;-83
2021/01/11 01:49:53;;;;;;;;;;;;;;;;;;5046270;28;20380;-83
2021/01/11 01:52:20;;;;;;;;;;;;;;;;;;5049818;28;20417;-83
2021/01/11 01:54:46;;;;;;;;;;;;;;;;;;5052900;28;20847;-83
2021/01/11 01:57:13;;;;;;;;;;;;;;;;;;5054240;28;20399;-83
2021/01/11 01:59:39;;;;;;;;;;;;;;;;;;5058389;28;20387;-83
2021/01/11 02:02:05;;;;;;;;;;;;;;;;;;5092704;22;20485;-79
2021/01/11 02:04:32;;;;;;;;;;;;;;;;;;5048650;28;20379;-79
2021/01/11 02:06:58;;;;;;;;;;;;;;;;;;5055085;28;20380;-79
2021/01/11 02:09:24;;;;;;;;;;;;;;;;;;5065723;28;20391;-79
2021/01/11 02:11:51;;;;;;;;;;;;;;;;;;5051317;28;20411;-79
2021/01/11 02:14:17;;;;;;;;;;;;;;;;;;5055177;28;20913;-79
2021/01/11 02:16:43;;;;;;;;;;;;;;;;;;5056503;28;20391;-80
2021/01/11 02:19:10;;;;;;;;;;;;;;;;;;5058401;28;20388;-79
2021/01/11 02:21:36;;;;;;;;;;;;;;;;;;5061604;28;20872;-79
2021/01/11 02:24:02;;;;;;;;;;;;;;;;;;5059801;28;20383;-79
2021/01/11 02:26:29;;;;;;;;;;;;;;;;;;5062910;28;20399;-79
2021/01/11 02:28:55;;;;;;;;;;;;;;;;;;5056335;28;20871;-79
2021/01/11 02:31:22;;;;;;;;;;;;;;;;;;5060934;28;20406;-79
2021/01/11 02:33:48;;;;;;;;;;;;;;;;;;5062590;28;20411;-79
2021/01/11 02:36:14;;;;;;;;;;;;;;;;;;5055216;28;20961;-79
2021/01/11 02:38:41;;;;;;;;;;;;;;;;;;5060600;28;20380;-79
2021/01/11 02:41:07;;;;;;;;;;;;;;;;;;5062861;28;20384;-79
2021/01/11 02:43:33;;;;;;;;;;;;;;;;;;5060184;28;20409;-78
2021/01/11 02:46:00;;;;;;;;;;;;;;;;;;5053907;28;20396;-78
2021/01/11 02:48:26;;;;;;;;;;;;;;;;;;5055365;28;20405;-79
2021/01/11 02:50:52;;;;;;;;;;;;;;;;;;5050194;28;20383;-80
2021/01/11 02:53:19;;;;;;;;;;;;;;;;;;5049846;28;20391;-79
2021/01/11 02:55:45;;;;;;;;;;;;;;;;;;5058326;28;20384;-79
2021/01/11 02:58:12;;;;;;;;;;;;;;;;;;5054453;28;20384;-79
2021/01/11 03:00:38;;;;;;;;;;;;;;;;;;5059603;28;20752;-79
2021/01/11 03:03:04;;;;;;;;;;;;;;;;;;5059301;28;20431;-79
2021/01/11 03:05:31;;;;;;;;;;;;;;;;;;5058193;28;20384;-79
2021/01/11 03:07:57;;;;;;;;;;;;;;;;;;5059994;28;20407;-79
2021/01/11 03:10:23;;;;;;;;;;;;;;;;;;5056673;28;20881;-79
2021/01/11 03:12:50;;;;;;;;;;;;;;;;;;5062159;28;20416;-79
2021/01/11 03:15:16;;;;;;;;;;;;;;;;;;5060206;28;20486;-79
2021/01/11 03:17:43;;;;;;;;;;;;;;;;;;5057673;28;20403;-79
2021/01/11 03:20:09;;;;;;;;;;;;;;;;;;5057745;28;20406;-80
2021/01/11 03:22:35;;;;;;;;;;;;;;;;;;5060197;28;20419;-79
2021/01/11 03:25:02;;;;;;;;;;;;;;;;;;5063366;28;20393;-79
2021/01/11 03:27:28;;;;;;;;;;;;;;;;;;5060463;28;20408;-80
2021/01/11 03:29:55;;;;;;;;;;;;;;;;;;5058874;28;20395;-80
2021/01/11 03:32:21;;;;;;;;;;;;;;;;;;5056096;28;20408;-80
2021/01/11 03:34:47;;;;;;;;;;;;;;;;;;5074514;28;20368;-80
2021/01/11 03:37:14;;;;;;;;;;;;;;;;;;5060880;28;20391;-80
2021/01/11 03:39:40;;;;;;;;;;;;;;;;;;5062196;28;20395;-79
2021/01/11 03:42:07;;;;;;;;;;;;;;;;;;5064496;28;20404;-79
2021/01/11 03:44:33;;;;;;;;;;;;;;;;;;5056608;28;20392;-80
2021/01/11 03:46:59;;;;;;;;;;;;;;;;;;5058794;28;20388;-80
2021/01/11 03:49:26;;;;;;;;;;;;;;;;;;5059501;28;20722;-80
2021/01/11 03:51:52;;;;;;;;;;;;;;;;;;5050369;28;20426;-80
2021/01/11 03:54:18;;;;;;;;;;;;;;;;;;5055120;28;20395;-79
2021/01/11 03:56:45;;;;;;;;;;;;;;;;;;5054126;28;20395;-82
2021/01/11 03:59:11;;;;;;;;;;;;;;;;;;5062603;28;20805;-82
2021/01/11 04:01:37;;;;;;;;;;;;;;;;;;5062362;28;20416;-82
2021/01/11 04:04:04;;;;;;;;;;;;;;;;;;5050050;28;20422;-80
2021/01/11 04:06:30;;;;;;;;;;;;;;;;;;5054016;28;20392;-80
2021/01/11 04:08:57;;;;;;;;;;;;;;;;;;5051214;28;20405;-80
2021/01/11 04:11:23;;;;;;;;;;;;;;;;;;5060389;28;20462;-80
2021/01/11 04:13:49;;;;;;;;;;;;;;;;;;5061362;28;20379;-79
2021/01/11 04:16:16;;;;;;;;;;;;;;;;;;5063200;28;20384;-79
2021/01/11 04:18:42;;;;;;;;;;;;;;;;;;5056570;28;20380;-79
2021/01/11 04:21:08;;;;;;;;;;;;;;;;;;5050193;28;21047;-80
2021/01/11 04:23:35;;;;;;;;;;;;;;;;;;5049841;28;20388;-79
2021/01/11 04:26:01;;;;;;;;;;;;;;;;;;5050495;28;20387;-80
2021/01/11 04:28:27;;;;;;;;;;;;;;;;;;5059635;28;20393;-80
2021/01/11 04:30:54;;;;;;;;;;;;;;;;;;5059871;28;20406;-79
2021/01/11 04:33:20;;;;;;;;;;;;;;;;;;5055169;28;20388;-79
2021/01/11 04:35:47;;;;;;;;;;;;;;;;;;5057611;28;20377;-82
2021/01/11 04:38:13;;;;;;;;;;;;;;;;;;5054928;28;20380;-79
2021/01/11 04:40:39;;;;;;;;;;;;;;;;;;5063088;28;20382;-82
2021/01/11 04:43:06;;;;;;;;;;;;;;;;;;5054502;28;20400;-79
2021/01/11 04:45:32;;;;;;;;;;;;;;;;;;5056634;28;20848;-79
2021/01/11 04:47:58;;;;;;;;;;;;;;;;;;5045752;28;20403;-79
2021/01/11 04:50:25;;;;;;;;;;;;;;;;;;5042407;28;20392;-79
2021/01/11 04:52:51;;;;;;;;;;;;;;;;;;5062115;28;20408;-79
2021/01/11 04:55:17;;;;;;;;;;;;;;;;;;5052556;28;20414;-79
2021/01/11 04:57:44;;;;;;;;;;;;;;;;;;5055662;28;20391;-79
2021/01/11 05:00:10;;;;;;;;;;;;;;;;;;5056945;28;20388;-80
2021/01/11 05:02:37;;;;;;;;;;;;;;;;;;5062344;28;20416;-80
2021/01/11 05:05:03;;;;;;;;;;;;;;;;;;5052204;28;20418;-79
2021/01/11 05:07:29;;;;;;;;;;;;;;;;;;5050930;28;20418;-79
2021/01/11 05:09:56;;;;;;;;;;;;;;;;;;5054037;28;20385;-79
2021/01/11 05:12:22;;;;;;;;;;;;;;;;;;5057379;28;20408;-79
2021/01/11 05:14:48;;;;;;;;;;;;;;;;;;5058958;28;20386;-80
2021/01/11 05:17:15;;;;;;;;;;;;;;;;;;5055920;28;20486;-79
2021/01/11 05:19:41;;;;;;;;;;;;;;;;;;5058896;28;20381;-79
2021/01/11 05:22:09;;;;;;;;;;;;;;;;;;5052198;28;20422;-79
2021/01/11 05:24:35;;;;;;;;;;;;;;;;;;5052078;28;20418;-79
2021/01/11 05:27:02;;;;;;;;;;;;;;;;;;5061879;28;20378;-79
2021/01/11 05:29:28;;;;;;;;;;;;;;;;;;5068288;28;20400;-79
2021/01/11 05:31:55;;;;;;;;;;;;;;;;;;5052438;28;20418;-79
2021/01/11 05:34:22;;;;;;;;;;;;;;;;;;5062586;28;20390;-79
2021/01/11 05:36:48;;;;;;;;;;;;;;;;;;5062888;28;20449;-79
2021/01/11 05:39:15;;;;;;;;;;;;;;;;;;5066797;28;20475;-79
2021/01/11 05:41:41;;;;;;;;;;;;;;;;;;5061068;28;20413;-79
2021/01/11 05:44:07;;;;;;;;;;;;;;;;;;5062170;28;20462;-79
2021/01/11 05:46:34;;;;;;;;;;;;;;;;;;5073804;28;20381;-79
2021/01/11 05:49:00;;;;;;;;;;;;;;;;;;5068655;28;20410;-79
2021/01/11 05:51:27;;;;;;;;;;;;;;;;;;5065696;28;20400;-79
2021/01/11 05:53:53;;;;;;;;;;;;;;;;;;5051775;28;20389;-79
2021/01/11 05:56:19;;;;;;;;;;;;;;;;;;5067644;28;20386;-79
2021/01/11 05:58:46;;;;;;;;;;;;;;;;;;5069695;28;20384;-80
2021/01/11 06:01:12;;;;;;;;;;;;;;;;;;5055363;28;20426;-79
2021/01/11 06:03:39;;;;;;;;;;;;;;;;;;5057632;28;20366;-79
2021/01/11 06:06:05;;;;;;;;;;;;;;;;;;5056445;28;20379;-79
2021/01/11 06:08:32;;;;;;;;;;;;;;;;;;5063866;28;20399;-80
2021/01/11 06:11:00;;;;;;;;;;;;;;;;;;5060314;28;20384;-80
2021/01/11 06:13:27;;;;;;;;;;;;;;;;;;5056809;28;20387;-81
2021/01/11 06:15:53;;;;;;;;;;;;;;;;;;5065223;28;20399;-80
2021/01/11 06:18:19;;;;;;;;;;;;;;;;;;5058577;28;20762;-81
2021/01/11 06:20:46;;;;;;;;;;;;;;;;;;5051996;28;20376;-82
2021/01/11 06:23:12;;;;;;;;;;;;;;;;;;5064792;28;20412;-80
2021/01/11 06:25:39;;;;;;;;;;;;;;;;;;5058082;28;20819;-82
2021/01/11 06:28:05;;;;;;;;;;;;;;;;;;5047469;28;20414;-80
2021/01/11 06:30:32;;;;;;;;;;;;;;;;;;5049229;28;20414;-81
2021/01/11 06:32:58;;;;;;;;;;;;;;;;;;5063866;28;20401;-81
2021/01/11 06:35:25;;;;;;;;;;;;;;;;;;5061982;28;20380;-81
2021/01/11 06:37:51;;;;;;;;;;;;;;;;;;5061983;28;20373;-81
2021/01/11 06:40:17;;;;;;;;;;;;;;;;;;5053770;28;20867;-80
2021/01/11 06:42:44;;;;;;;;;;;;;;;;;;5066817;28;20408;-81
2021/01/11 06:45:10;;;;;;;;;;;;;;;;;;5049898;28;20849;-82
2021/01/11 06:47:37;;;;;;;;;;;;;;;;;;5056758;28;20408;-82
2021/01/11 06:50:03;;;;;;;;;;;;;;;;;;5059656;28;20388;-79
2021/01/11 06:52:29;;;;;;;;;;;;;;;;;;5059604;28;20399;-79
2021/01/11 06:54:56;;;;;;;;;;;;;;;;;;5052375;28;20386;-80
2021/01/11 06:57:24;;;;;;;;;;;;;;;;;;5049620;28;20453;-81
2021/01/11 06:59:51;;;;;;;;;;;;;;;;;;5070962;28;20403;-81
2021/01/11 07:02:17;;;;;;;;;;;;;;;;;;5054795;28;20472;-81
2021/01/11 07:04:44;;;;;;;;;;;;;;;;;;5047051;28;20393;-82
2021/01/11 07:07:11;;;;;;;;;;;;;;;;;;5058617;28;20529;-82
2021/01/11 07:09:37;;;;;;;;;;;;;;;;;;5059206;28;20403;-81
2021/01/11 07:12:03;;;;;;;;;;;;;;;;;;5054282;28;20438;-80
2021/01/11 07:14:30;;;;;;;;;;;;;;;;;;5053716;28;20879;-81
2021/01/11 07:16:56;;;;;;;;;;;;;;;;;;5048278;28;20450;-81
2021/01/11 07:19:22;;;;;;;;;;;;;;;;;;5073969;28;20394;-79
2021/01/11 07:21:49;;;;;;;;;;;;;;;;;;5064778;28;20402;-80
2021/01/11 07:24:16;;;;;;;;;;;;;;;;;;5049730;28;20396;-80
2021/01/11 07:26:42;;;;;;;;;;;;;;;;;;5054745;28;20384;-80
2021/01/11 07:29:09;;;;;;;;;;;;;;;;;;5054258;28;20407;-81
2021/01/11 07:31:35;;;;;;;;;;;;;;;;;;5042802;28;20444;-81
2021/01/11 07:34:01;;;;;;;;;;;;;;;;;;5048082;28;20394;-80
2021/01/11 07:36:28;;;;;;;;;;;;;;;;;;5052220;28;20450;-81
2021/01/11 07:38:54;;;;;;;;;;;;;;;;;;5060226;28;20382;-81
2021/01/11 07:41:21;;;;;;;;;;;;;;;;;;5057442;28;20399;-81
2021/01/11 07:43:47;;;;;;;;;;;;;;;;;;5046136;28;20384;-81
2021/01/11 07:46:13;;;;;;;;;;;;;;;;;;5049382;28;20389;-81
2021/01/11 07:48:40;;;;;;;;;;;;;;;;;;5058230;28;20415;-81
2021/01/11 07:51:07;;;;;;;;;;;;;;;;;;5058522;28;20402;-81
2021/01/11 07:53:33;;;;;;;;;;;;;;;;;;5046073;28;20480;-81
2021/01/11 07:55:59;;;;;;;;;;;;;;;;;;5058496;28;20379;-81
2021/01/11 07:58:27;;;;;;;;;;;;;;;;;;5054311;28;20797;-81
2021/01/11 08:00:53;;;;;;;;;;;;;;;;;;5049843;28;20391;-81
2021/01/11 08:03:19;;;;;;;;;;;;;;;;;;5074143;22;20419;-81
2021/01/11 08:05:46;;;;;;;;;;;;;;;;;;5064729;28;20725;-84
2021/01/11 08:08:12;;;;;;;;;;;;;;;;;;5059846;28;20394;-81
2021/01/11 08:10:39;;;;;;;;;;;;;;;;;;5043352;28;20387;-80
2021/01/11 08:13:05;;;;;;;;;;;;;;;;;;5061281;28;20400;-80
2021/01/11 08:15:31;;;;;;;;;;;;;;;;;;5063437;28;20479;-80
2021/01/11 08:17:58;;;;;;;;;;;;;;;;;;5060111;28;20487;-82
2021/01/11 08:20:24;;;;;;;;;;;;;;;;;;5044513;28;20387;-80
2021/01/11 08:22:51;;;;;;;;;;;;;;;;;;5054719;28;20404;-81
2021/01/11 08:25:17;;;;;;;;;;;;;;;;;;5066161;28;20415;-81
2021/01/11 08:27:44;;;;;;;;;;;;;;;;;;5075829;28;20756;-81
2021/01/11 08:30:11;;;;;;;;;;;;;;;;;;5051696;28;20448;-81
2021/01/11 08:32:37;;;;;;;;;;;;;;;;;;5052097;28;20396;-81
2021/01/11 08:35:04;;;;;;;;;;;;;;;;;;5064895;28;20391;-82
2021/01/11 08:37:30;;;;;;;;;;;;;;;;;;5063205;28;20395;-83
2021/01/11 08:39:57;;;;;;;;;;;;;;;;;;5060715;28;20388;-82
2021/01/11 08:42:23;;;;;;;;;;;;;;;;;;5057666;28;20404;-81
2021/01/11 08:44:50;;;;;;;;;;;;;;;;;;5063355;28;20387;-81
2021/01/11 08:47:17;;;;;;;;;;;;;;;;;;5063379;28;20391;-81
2021/01/11 08:49:43;;;;;;;;;;;;;;;;;;5063131;28;20481;-83
2021/01/11 08:52:09;;;;;;;;;;;;;;;;;;5061513;28;20454;-84
2021/01/11 08:54:36;;;;;;;;;;;;;;;;;;5061210;28;20392;-81
2021/01/11 08:57:02;;;;;;;;;;;;;;;;;;5049621;28;20387;-82
2021/01/11 08:59:29;;;;;;;;;;;;;;;;;;5045844;28;20403;-80
2021/01/11 09:01:55;;;;;;;;;;;;;;;;;;5055995;28;20389;-83
2021/01/11 09:04:21;;;;;;;;;;;;;;;;;;5063597;28;20392;-83
2021/01/11 09:06:48;;;;;;;;;;;;;;;;;;5063316;28;20418;-83
2021/01/11 09:09:14;;;;;;;;;;;;;;;;;;5050131;28;20402;-83
2021/01/11 09:11:41;;;;;;;;;;;;;;;;;;5054549;28;20417;-84
2021/01/11 09:14:07;;;;;;;;;;;;;;;;;;5062653;28;20414;-84
2021/01/11 09:16:33;;;;;;;;;;;;;;;;;;5067769;28;20396;-83
2021/01/11 09:19:00;;;;;;;;;;;;;;;;;;5049615;28;20379;-82
2021/01/11 09:21:26;;;;;;;;;;;;;;;;;;5060210;28;20389;-84
2021/01/11 09:23:53;;;;;;;;;;;;;;;;;;5061174;28;20421;-82
2021/01/11 09:26:20;;;;;;;;;;;;;;;;;;5063135;28;20403;-84
2021/01/11 09:28:46;;;;;;;;;;;;;;;;;;5062421;28;20451;-83
2021/01/11 09:31:13;;;;;;;;;;;;;;;;;;5062268;28;20392;-82
2021/01/11 09:33:39;;;;;;;;;;;;;;;;;;5069163;28;20430;-82
2021/01/11 09:36:05;;;;;;;;;;;;;;;;;;5061973;28;20380;-83
2021/01/11 09:38:34;;;;;;;;;;;;;;;;;;5050395;28;20391;-82
2021/01/11 09:41:01;;;;;;;;;;;;;;;;;;5041614;28;20391;-82
2021/01/11 09:43:27;;;;;;;;;;;;;;;;;;5052677;28;20740;-83
2021/01/11 09:45:55;;;;;;;;;;;;;;;;;;5065392;28;20395;-85
2021/01/11 09:48:22;;;;;;;;;;;;;;;;;;5068535;28;20442;-85
2021/01/11 09:50:49;;;;;;;;;;;;;;;;;;5049934;28;20433;-88
2021/01/11 09:53:15;;;;;;;;;;;;;;;;;;5044061;28;20438;-85
2021/01/11 09:55:41;;;;;;;;;;;;;;;;;;5076392;28;20386;-86
2021/01/11 09:58:08;;;;;;;;;;;;;;;;;;5075757;28;20415;-84
2021/01/11 10:00:34;;;;;;;;;;;;;;;;;;5063084;28;20396;-84
2021/01/11 10:03:01;;;;;;;;;;;;;;;;;;5060986;28;20413;-85
2021/01/11 10:05:29;;;;;;;;;;;;;;;;;;5061754;28;20417;-86
2021/01/11 10:07:56;;;;;;;;;;;;;;;;;;5059802;28;20872;-85
2021/01/11 10:10:22;;;;;;;;;;;;;;;;;;5061880;28;20381;-86
2021/01/11 10:12:58;;;;;;;;;;;;;;;;;;5068147;28;20411;-85
2021/01/11 10:20:54;;;;;;;;;;;;;;;;;;4983625;28;20391;-84
2021/01/11 10:23:21;;;;;;;;;;;;;;;;;;4999071;28;20408;-85
2021/01/11 10:25:47;;;;;;;;;;;;;;;;;;4993229;28;20384;-84
2021/01/11 10:28:13;;;;;;;;;;;;;;;;;;4998972;28;20412;-84
2021/01/11 10:30:40;;;;;;;;;;;;;;;;;;4997407;28;20424;-83
2021/01/11 10:33:06;;;;;;;;;;;;;;;;;;5001274;28;20429;-83
2021/01/11 10:35:34;;;;;;;;;;;;;;;;;;5003712;28;20443;-84
2021/01/11 10:38:00;;;;;;;;;;;;;;;;;;4993945;28;20419;-84
2021/01/11 10:40:27;;;;;;;;;;;;;;;;;;4992413;28;20396;-85
2021/01/11 10:42:53;;;;;;;;;;;;;;;;;;4996314;28;20754;-84
2021/01/11 10:45:20;;;;;;;;;;;;;;;;;;4996740;28;20482;-84
2021/01/11 10:47:46;;;;;;;;;;;;;;;;;;5002796;28;20908;-85
2021/01/11 10:50:13;;;;;;;;;;;;;;;;;;4979636;28;20494;-84
2021/01/11 10:52:40;;;;;;;;;;;;;;;;;;4994301;28;20528;-84
2021/01/11 10:55:08;;;;;;;;;;;;;;;;;;4986299;28;20403;-84
2021/01/11 10:57:34;;;;;;;;;;;;;;;;;;5012238;28;20868;-86
2021/01/11 11:00:01;;;;;;;;;;;;;;;;;;5050189;28;20394;-84
2021/01/11 11:02:27;;;;;;;;;;;;;;;;;;5063424;28;20408;-84
2021/01/11 11:04:55;;;;;;;;;;;;;;;;;;5059337;28;20387;-83
2021/01/11 11:07:22;;;;;;;;;;;;;;;;;;5061160;28;20380;-85
2021/01/11 11:09:49;;;;;;;;;;;;;;;;;;5059650;28;20889;-87
2021/01/11 11:12:16;;;;;;;;;;;;;;;;;;5057474;28;20435;-89
2021/01/11 11:14:58;;;;;;;;;;;;;;;;;;5057589;28;20413;-84
2021/01/11 11:17:26;;;;;;;;;;;;;;;;;;5051074;28;20384;-85
2021/01/11 11:19:52;;;;;;;;;;;;;;;;;;5059308;28;20392;-85
2021/01/11 11:22:19;;;;;;;;;;;;;;;;;;5070439;28;20780;-86
2021/01/11 11:24:47;;;;;;;;;;;;;;;;;;5078712;28;20368;-85
2021/01/11 11:27:14;;;;;;;;;;;;;;;;;;5061120;28;20405;-85
2021/01/11 11:29:40;;;;;;;;;;;;;;;;;;5059068;28;20403;-83
2021/01/11 11:32:07;;;;;;;;;;;;;;;;;;5063716;28;20434;-84
2021/01/11 11:34:34;;;;;;;;;;;;;;;;;;5064893;28;20396;-84
2021/01/11 11:37:00;;;;;;;;;;;;;;;;;;5065673;28;20423;-85
2021/01/11 11:39:26;;;;;;;;;;;;;;;;;;5064095;28;20391;-84
2021/01/11 11:41:53;;;;;;;;;;;;;;;;;;5060027;28;20396;-84
2021/01/11 11:44:21;;;;;;;;;;;;;;;;;;5059451;28;20392;-87
2021/01/11 11:46:48;;;;;;;;;;;;;;;;;;5059311;28;20376;-84
2021/01/11 11:49:15;;;;;;;;;;;;;;;;;;5058125;28;21380;-84
2021/01/11 11:51:42;;;;;;;;;;;;;;;;;;5042714;28;20429;-85
2021/01/11 11:54:08;;;;;;;;;;;;;;;;;;5043110;28;20400;-84
2021/01/11 11:56:35;;;;;;;;;;;;;;;;;;5042215;28;20391;-85
2021/01/11 11:59:01;;;;;;;;;;;;;;;;;;5053349;28;20373;-83
2021/01/11 12:01:28;;;;;;;;;;;;;;;;;;5066353;28;20385;-84
2021/01/11 12:03:55;;;;;;;;;;;;;;;;;;5063732;28;20892;-86
2021/01/11 12:06:21;;;;;;;;;;;;;;;;;;5059142;28;20403;-86
2021/01/11 12:08:47;;;;;;;;;;;;;;;;;;5059433;28;20415;-85
2021/01/11 12:11:14;;;;;;;;;;;;;;;;;;5062371;28;20388;-84
2021/01/11 12:13:41;;;;;;;;;;;;;;;;;;5061050;28;20408;-85
2021/01/11 12:16:08;;;;;;;;;;;;;;;;;;5059117;28;20384;-84
2021/01/11 12:18:35;;;;;;;;;;;;;;;;;;5062211;28;20422;-85
2021/01/11 12:21:02;;;;;;;;;;;;;;;;;;5061888;28;20387;-85
2021/01/11 12:23:29;;;;;;;;;;;;;;;;;;5061730;28;20414;-86
2021/01/11 12:25:56;;;;;;;;;;;;;;;;;;5061358;28;20384;-85
2021/01/11 12:28:23;;;;;;;;;;;;;;;;;;5053454;28;20406;-85
2021/01/11 12:30:49;;;;;;;;;;;;;;;;;;5064651;28;20406;-84
2021/01/11 12:33:16;;;;;;;;;;;;;;;;;;5066359;28;20436;-86
2021/01/11 12:35:42;;;;;;;;;;;;;;;;;;5050901;28;20870;-85
2021/01/11 12:38:09;;;;;;;;;;;;;;;;;;5057496;28;20432;-87
2021/01/11 12:40:35;;;;;;;;;;;;;;;;;;5050798;28;20398;-87
2021/01/11 12:43:03;;;;;;;;;;;;;;;;;;5058099;28;20421;-87
2021/01/11 12:45:31;;;;;;;;;;;;;;;;;;5063579;28;20382;-86
2021/01/11 12:47:58;;;;;;;;;;;;;;;;;;5066274;28;20419;-88
2021/01/11 12:50:24;;;;;;;;;;;;;;;;;;5063366;28;20395;-87
2021/01/11 12:52:51;;;;;;;;;;;;;;;;;;5060621;28;20495;-87
2021/01/11 12:55:18;;;;;;;;;;;;;;;;;;5042915;28;20917;-87
2021/01/11 12:57:44;;;;;;;;;;;;;;;;;;5063162;28;20391;-87
2021/01/11 13:00:11;;;;;;;;;;;;;;;;;;5062737;28;20411;-87
2021/01/11 13:02:37;;;;;;;;;;;;;;;;;;5058461;28;20460;-87
2021/01/11 13:05:03;;;;;;;;;;;;;;;;;;5064037;28;20447;-87
2021/01/11 13:07:31;;;;;;;;;;;;;;;;;;5065199;28;20399;-86
2021/01/11 13:10:04;;;;;;;;;;;;;;;;;;5066283;28;20472;-87
2021/01/11 13:12:31;;;;;;;;;;;;;;;;;;5063013;28;20419;-85
2021/01/11 13:14:58;;;;;;;;;;;;;;;;;;5067724;28;20400;-85
2021/01/11 13:17:25;;;;;;;;;;;;;;;;;;5065771;28;20460;-86
2021/01/11 13:19:53;;;;;;;;;;;;;;;;;;5045375;28;20433;-86
2021/01/11 13:22:20;;;;;;;;;;;;;;;;;;5062182;28;21231;-85
2021/01/11 13:24:46;;;;;;;;;;;;;;;;;;5060102;28;20768;-85
2021/01/11 13:27:12;;;;;;;;;;;;;;;;;;5059432;28;20403;-86
2021/01/11 13:29:40;;;;;;;;;;;;;;;;;;5057808;28;20412;-85
2021/01/11 13:32:06;;;;;;;;;;;;;;;;;;5059762;28;20368;-86
2021/01/11 13:34:33;;;;;;;;;;;;;;;;;;5062609;28;20764;-86
2021/01/11 13:37:02;;;;;;;;;;;;;;;;;;5061804;28;20396;-86
2021/01/11 13:39:28;;;;;;;;;;;;;;;;;;5051675;28;20381;-86
2021/01/11 13:41:55;;;;;;;;;;;;;;;;;;5079800;28;20389;-85
2021/01/11 13:44:21;;;;;;;;;;;;;;;;;;5060687;28;20387;-88
2021/01/11 13:46:48;;;;;;;;;;;;;;;;;;5060685;28;20395;-86
2021/01/11 13:49:21;;;;;;;;;;;;;;;;;;5062819;28;20393;-86
2021/01/11 13:51:50;;;;;;;;;;;;;;;;;;5059997;28;20431;-88
2021/01/11 13:54:17;;;;;;;;;;;;;;;;;;5066609;28;20395;-85
2021/01/11 13:56:45;;;;;;;;;;;;;;;;;;5061936;28;20384;-85
2021/01/11 13:59:12;;;;;;;;;;;;;;;;;;5052550;28;20387;-83
2021/01/11 14:01:38;;;;;;;;;;;;;;;;;;5054364;28;20487;-83
2021/01/11 14:04:05;;;;;;;;;;;;;;;;;;5061677;28;20431;-84
2021/01/11 14:06:31;;;;;;;;;;;;;;;;;;5078719;28;20361;-83
2021/01/11 14:08:58;;;;;;;;;;;;;;;;;;5058484;28;20793;-85
2021/01/11 14:11:24;;;;;;;;;;;;;;;;;;5057996;28;20395;-86
2021/01/11 14:13:51;;;;;;;;;;;;;;;;;;5065288;28;20402;-84
2021/01/11 14:16:17;;;;;;;;;;;;;;;;;;5072779;28;20389;-86
2021/01/11 14:18:44;;;;;;;;;;;;;;;;;;5061866;28;20389;-86
2021/01/11 14:21:10;;;;;;;;;;;;;;;;;;5061270;28;20411;-86
2021/01/11 14:23:37;;;;;;;;;;;;;;;;;;5057169;28;20503;-85
2021/01/11 14:26:03;;;;;;;;;;;;;;;;;;5055445;28;20458;-85
2021/01/11 14:28:29;;;;;;;;;;;;;;;;;;5062072;28;20397;-85
2021/01/11 14:30:56;;;;;;;;;;;;;;;;;;5060441;28;20740;-85
2021/01/11 14:33:22;;;;;;;;;;;;;;;;;;5052317;28;20403;-85
2021/01/11 14:35:49;;;;;;;;;;;;;;;;;;5044580;28;20386;-84
2021/01/11 14:38:15;;;;;;;;;;;;;;;;;;5058210;28;20467;-86
2021/01/11 14:40:42;;;;;;;;;;;;;;;;;;5059458;28;20531;-85
2021/01/11 14:43:08;;;;;;;;;;;;;;;;;;5039986;28;20779;-85
2021/01/11 14:45:35;;;;;;;;;;;;;;;;;;5046892;28;20384;-85
2021/01/11 14:48:02;;;;;;;;;;;;;;;;;;5055975;28;20411;-86
2021/01/11 14:50:35;;;;;;;;;;;;;;;;;;5054355;28;20371;-88
2021/01/11 14:55:46;;;;;;;;;;;;;;;;;;5061216;28;20421;-85
2021/01/11 14:58:14;;;;;;;;;;;;;;;;;;5063002;28;20901;-85
2021/01/11 15:00:42;;;;;;;;;;;;;;;;;;5055482;28;20443;-88
2021/01/11 15:03:08;;;;;;;;;;;;;;;;;;5060722;28;20412;-85
2021/01/11 15:05:34;;;;;;;;;;;;;;;;;;5062842;28;20415;-85
2021/01/11 15:08:01;;;;;;;;;;;;;;;;;;5084629;28;20372;-83
2021/01/11 15:10:27;;;;;;;;;;;;;;;;;;5072850;28;20391;-83
2021/01/11 15:12:54;;;;;;;;;;;;;;;;;;5075911;28;20392;-84
2021/01/11 15:15:20;;;;;;;;;;;;;;;;;;5079495;28;20384;-83
2021/01/11 15:17:46;;;;;;;;;;;;;;;;;;5077005;28;20383;-84
2021/01/11 15:20:14;;;;;;;;;;;;;;;;;;5061261;28;20427;-84
2021/01/11 15:22:40;;;;;;;;;;;;;;;;;;5064330;28;20404;-83
2021/01/11 15:25:13;;;;;;;;;;;;;;;;;;5064611;28;20966;-85
2021/01/11 15:27:39;;;;;;;;;;;;;;;;;;5060899;28;20824;-84
2021/01/11 15:30:05;;;;;;;;;;;;;;;;;;5052346;28;20399;-83
2021/01/11 15:32:32;;;;;;;;;;;;;;;;;;5063816;28;20422;-83
2021/01/11 15:34:58;;;;;;;;;;;;;;;;;;5059758;28;20451;-84
2021/01/11 15:37:25;;;;;;;;;;;;;;;;;;5062528;28;20458;-84
2021/01/11 15:39:51;;;;;;;;;;;;;;;;;;5061948;28;20381;-85
2021/01/11 15:42:17;;;;;;;;;;;;;;;;;;5067387;28;20387;-83
2021/01/11 15:44:44;;;;;;;;;;;;;;;;;;5071412;28;20388;-84
2021/01/11 15:47:12;;;;;;;;;;;;;;;;;;5070233;28;20388;-84
2021/01/11 15:49:39;;;;;;;;;;;;;;;;;;5070703;28;20412;-83
2021/01/11 15:52:05;;;;;;;;;;;;;;;;;;5078585;28;20376;-83
2021/01/11 15:54:37;;;;;;;;;;;;;;;;;;5081730;28;20445;-84
2021/01/11 15:57:04;;;;;;;;;;;;;;;;;;5074799;28;20394;-84
2021/01/11 15:59:30;;;;;;;;;;;;;;;;;;5067493;28;20401;-82
2021/01/11 16:01:57;;;;;;;;;;;;;;;;;;5067330;28;20385;-84
2021/01/11 16:04:23;;;;;;;;;;;;;;;;;;5063156;28;20444;-83
2021/01/11 16:06:51;;;;;;;;;;;;;;;;;;5054756;28;20391;-82
2021/01/11 16:09:17;;;;;;;;;;;;;;;;;;5059168;28;20408;-85
2021/01/11 16:11:43;;;;;;;;;;;;;;;;;;5056140;28;20387;-85
2021/01/11 16:14:11;;;;;;;;;;;;;;;;;;5059485;28;20404;-85
2021/01/11 16:16:37;;;;;;;;;;;;;;;;;;5056420;28;20395;-83
2021/01/11 16:19:04;;;;;;;;;;;;;;;;;;5062711;28;20383;-83
2021/01/11 16:21:30;;;;;;;;;;;;;;;;;;5076386;28;20376;-82
2021/01/11 16:23:57;;;;;;;;;;;;;;;;;;5078723;28;20406;-83
2021/01/11 16:26:24;;;;;;;;;;;;;;;;;;5061034;28;20387;-84
2021/01/11 16:28:50;;;;;;;;;;;;;;;;;;5050447;28;20400;-85
2021/01/11 16:31:17;;;;;;;;;;;;;;;;;;5058931;28;20395;-83
2021/01/11 16:33:43;;;;;;;;;;;;;;;;;;5058465;28;20408;-85
2021/01/11 16:41:42;;;;;;;;;;;;;;;;;;5006726;28;20737;-84
2021/01/11 16:44:09;;;;;;;;;;;;;;;;;;5002578;28;20416;-84
2021/01/11 16:46:35;;;;;;;;;;;;;;;;;;5002579;28;20408;-84
2021/01/11 16:49:02;;;;;;;;;;;;;;;;;;5012987;28;20443;-82
2021/01/11 16:51:29;;;;;;;;;;;;;;;;;;5011193;28;20388;-83
2021/01/11 16:53:55;;;;;;;;;;;;;;;;;;5014603;28;20424;-84